createdAt,value
2023-04-14T00:01:44.729Z,100199.09
2023-04-14T00:04:11.948Z,100198.78
2023-04-14T00:06:38.414Z,100206.28
2023-04-14T00:09:04.742Z,100206.78
2023-04-14T00:11:31.169Z,100201.66
2023-04-14T00:13:57.912Z,100201.34
2023-04-14T00:16:24.440Z,100200.50
2023-04-14T00:18:50.949Z,100203.69
2023-04-14T00:21:17.486Z,100207.19
2023-04-14T00:23:43.856Z,100211.19
2023-04-14T00:26:10.276Z,100212.50
2023-04-14T00:28:36.575Z,100212.28
2023-04-14T00:31:03.614Z,100209.00
2023-04-14T00:33:30.004Z,100211.69
2023-04-14T00:35:56.416Z,100217.06
2023-04-14T00:38:23.205Z,100216.75
2023-04-14T00:40:49.527Z,100212.16
2023-04-14T00:43:16.535Z,100214.47
2023-04-14T00:45:43.493Z,100209.41
2023-04-14T00:48:10.166Z,100213.16
2023-04-14T00:50:36.601Z,100215.84
2023-04-14T00:53:03.149Z,100215.84
2023-04-14T00:55:29.546Z,100220.16
2023-04-14T00:57:56.145Z,100210.38
2023-04-14T01:00:22.655Z,100218.78
2023-04-14T01:02:50.756Z,100218.22
2023-04-14T01:05:17.473Z,100221.63
2023-04-14T01:07:44.121Z,100220.00
2023-04-14T01:10:10.533Z,100223.75
2023-04-14T01:12:36.824Z,100226.53
2023-04-14T01:15:03.298Z,100223.75
2023-04-14T01:17:29.645Z,100218.47
2023-04-14T01:19:56.073Z,100220.81
2023-04-14T01:22:22.627Z,100220.56
2023-04-14T01:24:49.035Z,100225.53
2023-04-14T01:27:15.364Z,100224.78
2023-04-14T01:29:41.743Z,100234.69
2023-04-14T01:32:08.276Z,100239.78
2023-04-14T01:34:34.866Z,100239.00
2023-04-14T01:37:01.206Z,100236.84
2023-04-14T01:39:27.633Z,100244.59
2023-04-14T01:41:54.045Z,100257.22
2023-04-14T01:44:20.398Z,100253.75
2023-04-14T01:46:47.330Z,100258.28
2023-04-14T01:49:14.298Z,100254.41
2023-04-14T01:51:41.025Z,100260.16
2023-04-14T01:54:07.853Z,100254.19
2023-04-14T01:56:34.189Z,100252.22
2023-04-14T01:59:01.228Z,100254.66
2023-04-14T02:01:27.904Z,100255.63
2023-04-14T02:03:54.411Z,100254.09
2023-04-14T02:06:20.812Z,100250.81
2023-04-14T02:08:47.428Z,100245.22
2023-04-14T02:11:13.797Z,100256.13
2023-04-14T02:13:40.266Z,100247.97
2023-04-14T02:16:06.695Z,100257.75
2023-04-14T02:18:33.083Z,100255.78
2023-04-14T02:20:59.557Z,100255.19
2023-04-14T02:23:25.973Z,100250.09
2023-04-14T02:25:52.388Z,100253.56
2023-04-14T02:28:19.048Z,100249.25
2023-04-14T02:30:45.433Z,100244.22
2023-04-14T02:33:12.337Z,100252.19
2023-04-14T02:35:38.673Z,100252.41
2023-04-14T02:38:05.912Z,100256.41
2023-04-14T02:40:32.767Z,100249.97
2023-04-14T02:42:59.437Z,100253.16
2023-04-14T02:45:26.470Z,100252.56
2023-04-14T02:47:52.785Z,100241.25
2023-04-14T02:50:19.623Z,100241.81
2023-04-14T02:52:46.018Z,100240.19
2023-04-14T02:55:12.480Z,100229.44
2023-04-14T02:57:38.885Z,100230.75
2023-04-14T03:00:05.324Z,100229.44
2023-04-14T03:02:32.499Z,100226.44
2023-04-14T03:04:58.839Z,100212.41
2023-04-14T03:07:25.156Z,100219.56
2023-04-14T03:09:51.541Z,100227.63
2023-04-14T03:12:18.070Z,100232.03
2023-04-14T03:14:44.424Z,100231.94
2023-04-14T03:17:10.951Z,100233.22
2023-04-14T03:19:37.888Z,100221.69
2023-04-14T03:22:04.191Z,100220.06
2023-04-14T03:24:30.735Z,100212.78
2023-04-14T03:26:57.049Z,100206.25
2023-04-14T03:29:24.259Z,100210.94
2023-04-14T03:31:50.655Z,100212.69
2023-04-14T03:34:17.394Z,100213.84
2023-04-14T03:36:43.813Z,100207.31
2023-04-14T03:39:11.508Z,100218.31
2023-04-14T03:41:37.978Z,100206.50
2023-04-14T03:44:04.801Z,100209.44
2023-04-14T03:46:31.188Z,100208.28
2023-04-14T03:48:57.988Z,100205.34
2023-04-14T03:51:24.509Z,100210.38
2023-04-14T03:53:51.119Z,100199.41
2023-04-14T03:56:17.459Z,100202.34
2023-04-14T03:58:44.119Z,100210.38
2023-04-14T04:01:10.752Z,100209.00
2023-04-14T04:03:37.341Z,100212.97
2023-04-14T04:06:04.046Z,100207.63
2023-04-14T04:08:30.962Z,100210.53
2023-04-14T04:10:57.347Z,100211.38
2023-04-14T04:13:23.690Z,100208.31
2023-04-14T04:15:50.314Z,100203.78
2023-04-14T04:18:17.270Z,100204.00
2023-04-14T04:20:43.673Z,100204.59
2023-04-14T04:23:10.049Z,100202.16
2023-04-14T04:25:36.876Z,100195.94
2023-04-14T04:28:03.759Z,100196.69
2023-04-14T04:30:30.375Z,100199.47
2023-04-14T04:32:56.852Z,100192.94
2023-04-14T04:35:23.394Z,100195.38
2023-04-14T04:37:49.959Z,100191.53
2023-04-14T04:40:16.290Z,100191.88
2023-04-14T04:42:42.590Z,100185.13
2023-04-14T04:45:08.946Z,100188.84
2023-04-14T04:47:35.521Z,100185.56
2023-04-14T04:50:01.950Z,100181.03
2023-04-14T04:52:28.803Z,100181.88
2023-04-14T04:54:55.137Z,100190.38
2023-04-14T04:57:21.444Z,100188.16
2023-04-14T04:59:48.263Z,100194.38
2023-04-14T05:02:14.663Z,100194.13
2023-04-14T05:04:41.200Z,100198.09
2023-04-14T05:07:08.131Z,100197.28
2023-04-14T05:09:34.530Z,100195.66
2023-04-14T05:12:01.028Z,100186.22
2023-04-14T05:14:27.853Z,100179.56
2023-04-14T05:16:54.388Z,100180.44
2023-04-14T05:19:20.784Z,100194.22
2023-04-14T05:21:47.586Z,100191.16
2023-04-14T05:24:13.939Z,100199.88
2023-04-14T05:29:09.631Z,100202.03
2023-04-14T05:31:36.020Z,100198.13
2023-04-14T05:34:03.294Z,100197.75
2023-04-14T05:36:29.928Z,100195.72
2023-04-14T05:38:56.453Z,100199.34
2023-04-14T05:41:22.988Z,100192.41
2023-04-14T05:43:49.995Z,100195.50
2023-04-14T05:46:16.649Z,100188.97
2023-04-14T05:48:43.013Z,100191.47
2023-04-14T05:51:09.284Z,100199.13
2023-04-14T05:53:35.608Z,100199.78
2023-04-14T05:56:02.005Z,100197.16
2023-04-14T05:58:28.681Z,100199.69
2023-04-14T06:00:55.037Z,100197.88
2023-04-14T06:03:21.721Z,100197.97
2023-04-14T06:05:48.593Z,100198.06
2023-04-14T06:08:15.662Z,100193.28
2023-04-14T06:10:42.013Z,100192.56
2023-04-14T06:13:08.520Z,100196.63
2023-04-14T06:15:34.953Z,100198.00
2023-04-14T06:18:01.722Z,100202.31
2023-04-14T06:20:30.173Z,100198.56
2023-04-14T06:22:58.406Z,100202.91
2023-04-14T06:25:24.822Z,100209.91
2023-04-14T06:27:51.857Z,100193.53
2023-04-14T06:30:18.619Z,100204.03
2023-04-14T06:32:45.201Z,100195.44
2023-04-14T06:35:19.123Z,100195.19
2023-04-14T06:37:52.364Z,100209.81
2023-04-14T06:40:18.770Z,100210.63
2023-04-14T06:42:45.208Z,100203.09
2023-04-14T06:45:11.618Z,100201.22
2023-04-14T06:47:38.064Z,100196.97
2023-04-14T06:50:04.805Z,100200.22
2023-04-14T06:52:31.137Z,100194.63
2023-04-14T06:54:58.066Z,100196.81
2023-04-14T06:57:24.363Z,100191.19
2023-04-14T06:59:50.669Z,100189.88
2023-04-14T07:02:17.066Z,100181.53
2023-04-14T07:04:43.528Z,100185.63
2023-04-14T07:07:10.000Z,100178.91
2023-04-14T07:09:36.367Z,100182.16
2023-04-14T07:12:03.390Z,100181.91
2023-04-14T07:14:29.877Z,100180.03
2023-04-14T07:16:56.615Z,100175.19
2023-04-14T07:19:22.975Z,100181.97
2023-04-14T07:21:49.806Z,100182.28
2023-04-14T07:24:16.272Z,100181.22
2023-04-14T07:26:42.620Z,100175.59
2023-04-14T07:29:09.664Z,100181.75
2023-04-14T07:31:36.189Z,100180.44
2023-04-14T07:34:03.043Z,100182.88
2023-04-14T07:36:29.560Z,100188.59
2023-04-14T07:38:56.084Z,100181.91
2023-04-14T07:41:22.684Z,100185.13
2023-04-14T07:43:49.462Z,100182.19
2023-04-14T07:46:16.220Z,100186.25
2023-04-14T07:48:42.769Z,100181.69
2023-04-14T07:51:09.624Z,100187.38
2023-04-14T07:53:36.270Z,100194.41
2023-04-14T07:56:02.588Z,100183.13
2023-04-14T07:58:29.800Z,100185.56
2023-04-14T08:00:56.814Z,100188.81
2023-04-14T08:03:23.249Z,100182.09
2023-04-14T08:05:49.870Z,100181.84
2023-04-14T08:08:16.437Z,100183.22
2023-04-14T08:10:42.815Z,100179.47
2023-04-14T08:13:09.220Z,100178.94
2023-04-14T08:15:35.597Z,100187.59
2023-04-14T08:18:02.116Z,100182.50
2023-04-14T08:20:28.640Z,100180.06
2023-04-14T08:22:55.270Z,100181.44
2023-04-14T08:25:21.843Z,100175.00
2023-04-14T08:27:48.235Z,100175.28
2023-04-14T08:30:14.538Z,100176.66
2023-04-14T08:32:40.990Z,100173.13
2023-04-14T08:35:38.834Z,100171.81
2023-04-14T08:37:54.012Z,100172.91
2023-04-14T08:40:20.403Z,100166.47
2023-04-14T08:42:47.134Z,100168.09
2023-04-14T08:45:13.515Z,100176.75
2023-04-14T08:47:39.875Z,100166.56
2023-04-14T08:50:06.295Z,100155.50
2023-04-14T08:52:32.739Z,100156.88
2023-04-14T08:54:59.679Z,100156.88
2023-04-14T08:57:26.434Z,100155.53
2023-04-14T08:59:52.927Z,100155.53
2023-04-14T09:02:19.379Z,100161.22
2023-04-14T09:04:45.909Z,100158.84
2023-04-14T09:07:12.278Z,100156.66
2023-04-14T09:09:38.966Z,100162.84
2023-04-14T09:12:05.739Z,100165.03
2023-04-14T09:14:32.087Z,100159.13
2023-04-14T09:16:58.679Z,100152.66
2023-04-14T09:19:25.238Z,100153.22
2023-04-14T09:21:54.765Z,100153.78
2023-04-14T09:24:21.773Z,100163.22
2023-04-14T09:26:48.308Z,100154.06
2023-04-14T09:29:15.274Z,100152.19
2023-04-14T09:31:41.720Z,100151.94
2023-04-14T09:34:08.697Z,100155.16
2023-04-14T09:36:35.459Z,100149.78
2023-04-14T09:39:01.971Z,100149.78
2023-04-14T09:41:28.588Z,100154.13
2023-04-14T09:43:54.900Z,100156.81
2023-04-14T09:46:21.725Z,100151.94
2023-04-14T09:48:48.592Z,100151.94
2023-04-14T09:51:15.127Z,100151.63
2023-04-14T09:53:41.416Z,100135.13
2023-04-14T09:56:07.761Z,100140.00
2023-04-14T09:58:34.065Z,100139.16
2023-04-14T10:01:00.617Z,100145.41
2023-04-14T10:03:27.509Z,100140.25
2023-04-14T10:05:53.911Z,100149.44
2023-04-14T10:08:20.278Z,100141.31
2023-04-14T10:10:46.733Z,100146.97
2023-04-14T10:13:13.105Z,100146.16
2023-04-14T10:15:39.525Z,100149.94
2023-04-14T10:18:06.455Z,100146.16
2023-04-14T10:20:32.873Z,100142.91
2023-04-14T10:22:59.193Z,100141.00
2023-04-14T10:25:25.936Z,100141.00
2023-04-14T10:27:52.241Z,100144.53
2023-04-14T10:30:19.326Z,100139.38
2023-04-14T10:32:45.796Z,100144.78
2023-04-14T10:35:12.230Z,100143.72
2023-04-14T10:37:38.600Z,100145.63
2023-04-14T10:40:04.933Z,100143.72
2023-04-14T10:42:31.373Z,100134.81
2023-04-14T10:44:57.749Z,100130.22
2023-04-14T10:47:24.429Z,100128.34
2023-04-14T10:49:50.707Z,100128.59
2023-04-14T10:52:17.356Z,100129.94
2023-04-14T10:54:43.726Z,100117.78
2023-04-14T10:57:10.146Z,100126.88
2023-04-14T10:59:36.696Z,100126.59
2023-04-14T11:02:03.168Z,100113.59
2023-04-14T11:04:29.703Z,100121.13
2023-04-14T11:06:56.477Z,100107.06
2023-04-14T11:09:22.902Z,100107.41
2023-04-14T11:11:49.293Z,100108.75
2023-04-14T11:14:15.613Z,100108.75
2023-04-14T11:16:47.656Z,100095.84
2023-04-14T11:19:25.762Z,100105.59
2023-04-14T11:21:52.102Z,100100.72
2023-04-14T11:24:19.049Z,100100.47
2023-04-14T11:26:45.475Z,100101.31
2023-04-14T11:29:12.312Z,100106.69
2023-04-14T11:31:38.569Z,100102.94
2023-04-14T11:34:05.235Z,100101.31
2023-04-14T11:36:31.769Z,100098.59
2023-04-14T11:38:58.396Z,100099.41
2023-04-14T11:41:24.995Z,100102.94
2023-04-14T11:43:51.338Z,100102.94
2023-04-14T11:46:18.524Z,100097.28
2023-04-14T11:48:45.137Z,100095.34
2023-04-14T11:51:11.519Z,100096.97
2023-04-14T11:53:38.363Z,100094.25
2023-04-14T11:56:04.681Z,100101.03
2023-04-14T11:58:31.037Z,100092.13
2023-04-14T12:00:57.409Z,100088.63
2023-04-14T12:03:24.040Z,100089.97
2023-04-14T12:05:50.477Z,100078.41
2023-04-14T12:08:16.807Z,100085.41
2023-04-14T12:10:43.305Z,100086.19
2023-04-14T12:13:10.344Z,100078.41
2023-04-14T12:15:37.021Z,100083.78
2023-04-14T12:18:03.455Z,100082.47
2023-04-14T12:20:29.915Z,100080.00
2023-04-14T12:22:56.236Z,100077.31
2023-04-14T12:25:22.717Z,100080.81
2023-04-14T12:27:49.808Z,100088.66
2023-04-14T12:30:16.410Z,100101.88
2023-04-14T12:32:43.087Z,100091.09
2023-04-14T12:35:09.750Z,100086.50
2023-04-14T12:37:36.149Z,100077.59
2023-04-14T12:40:02.769Z,100065.72
2023-04-14T12:42:29.408Z,100071.13
2023-04-14T12:44:56.369Z,100061.97
2023-04-14T12:47:23.007Z,100058.72
2023-04-14T12:49:50.055Z,100056.28
2023-04-14T12:52:16.443Z,100055.22
2023-04-14T12:54:42.851Z,100053.31
2023-04-14T12:57:09.851Z,100043.88
2023-04-14T12:59:36.333Z,100049.81
2023-04-14T13:02:02.844Z,100051.13
2023-04-14T13:04:29.275Z,100045.47
2023-04-14T13:06:55.860Z,100042.78
2023-04-14T13:09:22.174Z,100040.91
2023-04-14T13:11:48.517Z,100036.34
2023-04-14T13:14:15.360Z,100033.34
2023-04-14T13:16:41.799Z,100036.88
2023-04-14T13:19:09.316Z,100033.34
2023-04-14T13:21:36.168Z,100035.78
2023-04-14T13:24:02.514Z,100022.31
2023-04-14T13:26:29.294Z,100022.31
2023-04-14T13:28:56.160Z,100007.19
2023-04-14T13:31:22.703Z,100009.91
2023-04-14T13:33:49.128Z,100004.50
2023-04-14T13:36:15.729Z,100005.31
2023-04-14T13:38:42.175Z,100012.09
2023-04-14T13:41:09.076Z,100017.75
2023-04-14T13:43:35.454Z,100012.34
2023-04-14T13:46:01.973Z,100015.03
2023-04-14T13:48:28.732Z,100013.41
2023-04-14T13:50:55.816Z,100005.88
2023-04-14T13:53:22.476Z,99998.84
2023-04-14T13:55:48.798Z,100004.25
2023-04-14T13:58:15.199Z,100006.94
2023-04-14T14:00:41.880Z,99998.03
2023-04-14T14:03:08.462Z,99992.09
2023-04-14T14:05:35.433Z,99996.41
2023-04-14T14:08:01.838Z,99996.66
2023-04-14T14:10:28.150Z,100000.97
2023-04-14T14:12:54.464Z,99995.88
2023-04-14T14:15:21.735Z,99998.28
2023-04-14T14:17:48.108Z,99988.03
2023-04-14T14:20:14.796Z,99993.19
2023-04-14T14:22:41.124Z,99991.53
2023-04-14T14:25:19.310Z,99991.28
2023-04-14T14:27:47.205Z,100000.19
2023-04-14T14:30:13.542Z,100002.63
2023-04-14T14:32:39.931Z,99997.25
2023-04-14T14:35:07.820Z,99995.59
2023-04-14T14:37:34.187Z,99992.88
2023-04-14T14:40:00.542Z,99998.03
2023-04-14T14:42:27.285Z,100001.81
2023-04-14T14:44:53.645Z,100001.81
2023-04-14T14:47:20.748Z,100006.13
2023-04-14T14:49:59.109Z,100006.13
2023-04-14T14:52:33.541Z,99999.69
2023-04-14T14:54:59.938Z,100002.38
2023-04-14T14:57:26.295Z,100005.06
2023-04-14T14:59:52.927Z,100005.06
2023-04-14T15:02:19.968Z,99996.97
2023-04-14T15:04:46.582Z,100004.25
2023-04-14T15:07:13.009Z,99996.97
2023-04-14T15:09:39.626Z,99996.16
2023-04-14T15:12:07.284Z,99994.81
2023-04-14T15:14:34.090Z,99989.69
2023-04-14T15:17:00.704Z,99992.63
2023-04-14T15:19:27.336Z,99984.28
2023-04-14T15:21:53.908Z,99995.91
2023-04-14T15:24:20.880Z,100000.22
2023-04-14T15:26:47.519Z,100001.28
2023-04-14T15:29:14.021Z,100006.69
2023-04-14T15:31:40.706Z,100010.19
2023-04-14T15:34:07.446Z,100031.75
2023-04-14T15:36:33.751Z,100023.66
2023-04-14T15:39:00.147Z,100017.47
2023-04-14T15:41:26.744Z,100021.53
2023-04-14T15:43:53.502Z,100019.63
2023-04-14T15:46:20.112Z,100031.50
2023-04-14T15:48:46.546Z,100024.25
2023-04-14T15:51:13.124Z,100017.75
2023-04-14T15:53:39.581Z,100018.59
2023-04-14T15:56:06.029Z,100006.97
2023-04-14T15:58:32.427Z,100003.19
2023-04-14T16:00:58.987Z,99998.63
2023-04-14T16:03:25.726Z,100000.81
2023-04-14T16:05:52.273Z,99996.22
2023-04-14T16:08:19.234Z,99988.94
2023-04-14T16:10:45.544Z,99986.81
2023-04-14T16:13:11.878Z,99991.38
2023-04-14T16:15:38.313Z,99991.13
2023-04-14T16:18:04.660Z,99993.84
2023-04-14T16:20:31.259Z,99992.25
2023-04-14T16:22:57.908Z,99997.13
2023-04-14T16:25:24.848Z,100000.94
2023-04-14T16:27:51.951Z,100003.13
2023-04-14T16:30:18.905Z,100004.72
2023-04-14T16:32:45.326Z,99993.34
2023-04-14T16:35:11.773Z,99991.72
2023-04-14T16:37:38.996Z,99993.00
2023-04-14T16:40:05.338Z,99987.59
2023-04-14T16:42:32.084Z,99988.13
2023-04-14T16:44:58.521Z,99980.31
2023-04-14T16:47:25.021Z,99993.81
2023-04-14T16:49:51.815Z,99995.94
2023-04-14T16:52:18.182Z,99994.03
2023-04-14T16:54:44.559Z,99997.50
2023-04-14T16:57:10.882Z,99991.28
2023-04-14T16:59:37.166Z,99993.47
2023-04-14T17:02:03.708Z,99981.31
2023-04-14T17:04:30.233Z,99977.50
2023-04-14T17:06:56.851Z,99983.41
2023-04-14T17:09:23.210Z,99980.69
2023-04-14T17:11:49.597Z,99984.47
2023-04-14T17:14:15.928Z,99979.56
2023-04-14T17:16:42.459Z,99988.16
2023-04-14T17:19:08.846Z,99994.88
2023-04-14T17:21:35.467Z,100000.53
2023-04-14T17:24:02.520Z,99992.16
2023-04-14T17:26:29.116Z,99984.34
2023-04-14T17:28:55.470Z,99977.31
2023-04-14T17:31:21.979Z,99978.66
2023-04-14T17:33:48.427Z,99988.88
2023-04-14T17:36:14.814Z,99992.38
2023-04-14T17:38:41.179Z,99984.53
2023-04-14T17:41:07.823Z,99995.28
2023-04-14T17:43:34.294Z,100016.53
2023-04-14T17:46:00.663Z,100010.09
2023-04-14T17:48:27.044Z,99991.72
2023-04-14T17:50:53.417Z,99999.78
2023-04-14T17:53:20.060Z,99993.56
2023-04-14T17:55:46.451Z,99998.69
2023-04-14T17:58:12.863Z,100005.94
2023-04-14T18:00:39.306Z,100012.41
2023-04-14T18:03:05.825Z,100019.66
2023-04-14T18:05:32.817Z,100023.69
2023-04-14T18:07:59.220Z,100026.63
2023-04-14T18:10:26.020Z,100038.50
2023-04-14T18:12:52.662Z,100021.78
2023-04-14T18:15:19.610Z,100006.41
2023-04-14T18:17:46.285Z,100017.97
2023-04-14T18:20:12.589Z,100017.72
2023-04-14T18:22:39.412Z,100011.25
2023-04-14T18:25:06.161Z,100008.81
2023-04-14T18:30:02.008Z,99988.59
2023-04-14T18:32:28.556Z,99996.06
2023-04-14T18:34:55.028Z,99998.00
2023-04-14T18:37:21.403Z,100007.41
2023-04-14T18:39:48.198Z,99995.00
2023-04-14T18:42:14.520Z,99994.72
2023-04-14T18:44:40.958Z,99988.22
2023-04-14T18:47:07.747Z,99984.41
2023-04-14T18:49:34.246Z,99980.72
2023-04-14T18:52:01.312Z,99971.78
2023-04-14T18:57:18.748Z,99969.59
2023-04-14T18:59:45.130Z,99968.78
2023-04-14T19:02:11.782Z,99965.28
2023-04-14T19:04:38.773Z,99966.34
2023-04-14T19:07:05.113Z,99970.91
2023-04-14T19:09:32.190Z,99966.84
2023-04-14T19:11:58.539Z,99953.63
2023-04-14T19:14:25.094Z,99962.28
2023-04-14T19:16:51.450Z,99963.88
2023-04-14T19:19:17.853Z,99966.56
2023-04-14T19:21:44.218Z,99970.84
2023-04-14T19:24:10.632Z,99964.63
2023-04-14T19:26:37.100Z,99962.19
2023-04-14T19:29:03.784Z,99964.38
2023-04-14T19:31:30.533Z,99966.81
2023-04-14T19:33:56.972Z,99971.56
2023-04-14T19:36:23.741Z,99958.91
2023-04-14T19:38:50.302Z,99956.78
2023-04-14T19:41:16.847Z,99942.75
2023-04-14T19:43:43.171Z,99947.66
2023-04-14T19:46:09.637Z,99938.78
2023-04-14T19:48:37.085Z,99938.97
2023-04-14T19:51:03.458Z,99940.88
2023-04-14T19:53:29.906Z,99935.19
2023-04-14T19:55:56.441Z,99929.75
2023-04-14T19:58:23.073Z,99923.03
2023-04-14T20:00:49.519Z,99932.69
2023-04-14T20:03:15.978Z,99934.28
2023-04-14T20:05:42.702Z,99927.06
2023-04-14T20:08:09.054Z,99920.03
2023-04-14T20:10:35.413Z,99912.47
2023-04-14T20:13:03.114Z,99918.38
2023-04-14T20:15:29.783Z,99918.38
2023-04-14T20:17:56.188Z,99909.53
2023-04-14T20:20:22.616Z,99918.38
2023-04-14T20:22:49.567Z,99904.63
2023-04-14T20:25:16.116Z,99907.31
2023-04-14T20:27:42.508Z,99900.03
2023-04-14T20:30:08.866Z,99905.41
2023-04-14T20:32:35.248Z,99900.56
2023-04-14T20:35:01.648Z,99894.94
2023-04-14T20:37:28.017Z,99889.25
2023-04-14T20:39:54.400Z,99885.75
2023-04-14T20:42:20.748Z,99892.44
2023-04-14T20:44:47.126Z,99883.25
2023-04-14T20:47:13.554Z,99874.94
2023-04-14T20:49:40.441Z,99878.41
2023-04-14T20:52:07.031Z,99882.69
2023-04-14T20:54:33.384Z,99879.78
2023-04-14T20:56:59.757Z,99875.44
2023-04-14T20:59:26.205Z,99869.78
2023-04-14T21:01:52.602Z,99875.19
2023-04-14T21:04:19.203Z,99877.88
2023-04-14T21:06:45.659Z,99880.81
2023-04-14T21:09:12.082Z,99884.53
2023-04-14T21:11:38.565Z,99881.31
2023-04-14T21:15:29.451Z,99878.88
2023-04-14T21:16:51.259Z,99878.38
2023-04-14T21:19:17.958Z,99871.63
2023-04-14T21:21:44.382Z,99875.69
2023-04-14T21:24:10.891Z,99871.09
2023-04-14T21:26:37.233Z,99872.94
2023-04-14T21:29:03.892Z,99876.97
2023-04-14T21:31:30.644Z,99881.28
2023-04-14T21:33:57.140Z,99889.34
2023-04-14T21:36:23.480Z,99892.00
2023-04-14T21:38:49.829Z,99892.00
2023-04-14T21:41:16.173Z,99894.44
2023-04-14T21:43:42.740Z,99893.06
2023-04-14T21:46:09.220Z,99881.72
2023-04-14T21:48:35.577Z,99880.66
2023-04-14T21:51:01.913Z,99887.44
2023-04-14T21:53:28.272Z,99883.63
2023-04-14T21:56:08.758Z,99879.28
2023-04-14T21:58:37.191Z,99875.22
2023-04-14T22:01:03.693Z,99876.59
2023-04-14T22:03:30.674Z,99873.38
2023-04-14T22:05:57.582Z,99875.56
2023-04-14T22:08:23.913Z,99882.19
2023-04-14T22:10:50.305Z,99878.25
2023-04-14T22:13:17.144Z,99882.19
2023-04-14T22:15:43.725Z,99882.75
2023-04-14T22:18:10.087Z,99875.22
2023-04-14T22:20:36.486Z,99878.75
2023-04-14T22:23:02.808Z,99867.97
2023-04-14T22:25:29.539Z,99866.63
2023-04-14T22:27:55.914Z,99871.16
2023-04-14T22:30:22.336Z,99865.50
2023-04-14T22:32:49.214Z,99861.47
2023-04-14T22:35:15.649Z,99865.50
2023-04-14T22:37:42.011Z,99863.34
2023-04-14T22:40:08.809Z,99863.88
2023-04-14T22:42:35.364Z,99862.75
2023-04-14T22:45:02.209Z,99866.00
2023-04-14T22:47:28.980Z,99856.31
2023-04-14T22:49:55.362Z,99856.84
2023-04-14T22:52:21.718Z,99855.72
2023-04-14T22:54:48.489Z,99860.81
2023-04-14T22:57:15.352Z,99854.94
2023-04-14T22:59:41.941Z,99860.63
2023-04-14T23:02:08.362Z,99850.34
2023-04-14T23:04:34.904Z,99853.88
2023-04-14T23:07:02.002Z,99859.81
2023-04-14T23:09:28.739Z,99859.53
2023-04-14T23:11:55.538Z,99852.78
2023-04-14T23:14:22.201Z,99853.88
2023-04-14T23:16:48.689Z,99849.31
2023-04-14T23:19:15.308Z,99854.69
2023-04-14T23:21:41.655Z,99846.88
2023-04-14T23:24:08.268Z,99850.34
2023-04-14T23:26:34.779Z,99853.31
2023-04-14T23:29:01.462Z,99846.28
2023-04-14T23:31:28.183Z,99848.44
2023-04-14T23:33:54.801Z,99848.44
2023-04-14T23:36:21.119Z,99849.28
2023-04-14T23:38:47.559Z,99852.22
2023-04-14T23:41:14.010Z,99854.31
2023-04-14T23:43:40.337Z,99844.34
2023-04-14T23:46:07.457Z,99843.81
2023-04-14T23:48:33.782Z,99843.25
2023-04-14T23:51:14.710Z,99842.44
2023-04-14T23:53:46.585Z,99838.97
2023-04-14T23:56:12.887Z,99842.97
2023-04-14T23:58:39.408Z,99841.91
